This is the latest recevied weather packets stored in our database for station/object KO5MO-11. If no packets are shown the sender has not sent any weather packets the latest 10 day(s).
| Time | Temp. | Humidity | Pressure | Rain* | Wind** | Luminosity | Snow |
|---|---|---|---|---|---|---|---|
| 1777804472 | 24.44° C | 35% | 1009 hPa | - | - | 762 W/m² | - |
| 1777803872 | 26.11° C | 35% | 1009.1 hPa | - | - | 794 W/m² | - |
| 1777803272 | 23.89° C | 39% | 1009.1 hPa | - | - | 754 W/m² | - |
| 1777802672 | 23.89° C | 35% | 1008.9 hPa | - | - | 755 W/m² | - |
| 1777802072 | 26.11° C | 34% | 1008.9 hPa | - | - | 795 W/m² | - |
| 1777801472 | 25° C | 39% | 1008.9 hPa | - | - | 770 W/m² | - |
| 1777800872 | 23.33° C | 36% | 1008.7 hPa | - | - | 748 W/m² | - |
| 1777800272 | 23.89° C | 35% | 1008.8 hPa | - | - | 759 W/m² | - |
| 1777799672 | 26.11° C | 35% | 1008.9 hPa | - | - | 793 W/m² | - |
| 1777799072 | 23.89° C | 35% | 1008.9 hPa | - | - | 757 W/m² | - |
| 1777798472 | 26.11° C | 33% | 1008.9 hPa | - | - | 795 W/m² | - |
| 1777797872 | 25.56° C | 36% | 1008.9 hPa | - | - | 782 W/m² | - |
| 1777797272 | 23.33° C | 36% | 1009 hPa | - | - | 746 W/m² | - |
| 1777796672 | 23.89° C | 36% | 1009.2 hPa | - | - | 756 W/m² | - |
| 1777796072 | 26.11° C | 34% | 1009.3 hPa | - | - | 798 W/m² | - |
| 1777795472 | 25° C | 39% | 1009.2 hPa | - | - | 771 W/m² | - |
| 1777794872 | 23.33° C | 36% | 1009.2 hPa | - | - | 748 W/m² | - |
| 1777794272 | 24.44° C | 35% | 1009.3 hPa | - | - | 761 W/m² | - |
| 1777793672 | 26.67° C | 34% | 1009.3 hPa | - | - | 800 W/m² | - |
| 1777793072 | 25° C | 40% | 1009.3 hPa | - | - | 772 W/m² | - |
| 1777792472 | 23.33° C | 36% | 1009.4 hPa | - | - | 748 W/m² | - |
| 1777791872 | 23.89° C | 36% | 1009.4 hPa | - | - | 755 W/m² | - |
| 1777791272 | 26.11° C | 34% | 1009.3 hPa | - | - | 790 W/m² | - |
| 1777790672 | 25.56° C | 37% | 1009.1 hPa | - | - | 785 W/m² | - |
| 1777790072 | 23.33° C | 36% | 1009.1 hPa | - | - | 746 W/m² | - |
* Rain since midnight (hover to see other rain measurements)
** Current wind speed in m/s (hover to see current wind gust speed)